Terminal Aerodrome Forecast
Issued by NWS

Home | Current Version | Previous Version | Graphics & Text | Print | Product List | Glossary On
Versions: 1 2 3 4 5 6 7 8 9 10 11 12 13 14 15 16 17 18 19 20 21 22
000
FTUS43 KMPX 250400 AAA
TAFRWF
TAF AMD
KRWF 250415Z 2504/2524 20007KT P6SM BKN008 OVC070
     FM250800 18006KT 6SM BR SCT015 OVC070
     FM251400 VRB03KT 4SM BR OVC009
     FM252100 05005KT P6SM OVC015=

USA.gov is the U.S. government's official web portal to all federal, state and local government web resources and services.